Time;durP1;ratioP1;P1;durP2;ratioP2;P2;SDS_P1;SDS_P2;PMS_P1;PMS_P2;Temp;Humidity;BMP_temperature;BMP_pressure;BME280_temperature;BME280_humidity;BME280_pressure;Samples;Min_cycle;Max_cycle;Signal;HPM_P1;HPM_P2
2022/11/06 00:02:20;;;;;;;18.02;12.30;;;;;;;;;;6192052;28;20214;-65
2022/11/06 00:08:42;;;;;;;15.95;11.02;;;;;;;;;;6195648;28;20050;-67
2022/11/06 00:11:44;;;;;;;16.85;11.48;;;;;;;;;;6194859;28;20298;-66
2022/11/06 00:14:46;;;;;;;16.00;10.82;;;;;;;;;;6193200;28;20058;-67
2022/11/06 00:17:49;;;;;;;15.98;10.77;;;;;;;;;;6191933;28;20046;-67
2022/11/06 00:20:51;;;;;;;13.88;10.48;;;;;;;;;;6194038;28;20270;-67
2022/11/06 00:23:54;;;;;;;17.25;9.90;;;;;;;;;;6239117;28;20045;-67
2022/11/06 00:26:56;;;;;;;13.50;9.30;;;;;;;;;;6256605;28;20048;-65
2022/11/06 00:29:58;;;;;;;15.35;10.27;;;;;;;;;;6256697;28;20053;-66
2022/11/06 00:32:59;;;;;;;14.20;9.77;;;;;;;;;;6258759;28;20041;-67
2022/11/06 00:36:03;;;;;;;14.55;9.75;;;;;;;;;;6257591;28;20053;-66
2022/11/06 00:39:06;;;;;;;14.75;9.80;;;;;;;;;;6257994;28;20045;-67
2022/11/06 00:42:07;;;;;;;12.95;9.23;;;;;;;;;;6258449;28;20049;-66
2022/11/06 00:45:10;;;;;;;15.05;10.48;;;;;;;;;;6259974;28;20057;-66
2022/11/06 00:48:12;;;;;;;14.20;9.40;;;;;;;;;;6254309;28;20246;-66
2022/11/06 00:51:16;;;;;;;13.38;9.18;;;;;;;;;;6252608;28;20046;-66
2022/11/06 00:54:18;;;;;;;;;;;;;;;;;;6251833;28;20313;-66
2022/11/06 00:57:20;;;;;;;12.13;8.63;;;;;;;;;;6255753;28;19921;-66
2022/11/06 01:00:22;;;;;;;14.43;9.57;;;;;;;;;;6253787;28;20082;-67
2022/11/06 01:03:24;;;;;;;13.50;9.50;;;;;;;;;;6255570;28;20059;-65
2022/11/06 01:06:27;;;;;;;17.27;9.57;;;;;;;;;;6253928;28;20055;-65
2022/11/06 01:09:30;;;;;;;13.75;9.48;;;;;;;;;;6254831;28;20048;-64
2022/11/06 01:12:32;;;;;;;15.20;9.85;;;;;;;;;;6254232;28;20510;-65
2022/11/06 01:15:36;;;;;;;15.63;9.50;;;;;;;;;;6251597;28;20061;-66
2022/11/06 01:18:40;;;;;;;14.13;9.48;;;;;;;;;;6251392;28;20056;-66
2022/11/06 01:21:43;;;;;;;15.00;10.10;;;;;;;;;;6253320;28;20237;-66
2022/11/06 01:24:46;;;;;;;15.57;10.05;;;;;;;;;;6252294;28;20045;-65
2022/11/06 01:27:48;;;;;;;14.20;10.13;;;;;;;;;;6255263;28;20084;-66
2022/11/06 01:30:50;;;;;;;16.00;10.30;;;;;;;;;;6251621;28;20070;-66
2022/11/06 01:33:51;;;;;;;21.65;12.57;;;;;;;;;;6252147;28;20103;-65
2022/11/06 01:36:53;;;;;;;15.95;11.35;;;;;;;;;;6254397;28;20112;-67
2022/11/06 01:39:56;;;;;;;15.38;11.38;;;;;;;;;;6250951;28;20082;-65
2022/11/06 01:42:58;;;;;;;18.63;11.75;;;;;;;;;;6251805;28;20056;-66
2022/11/06 01:45:59;;;;;;;15.35;11.77;;;;;;;;;;6250369;28;20088;-67
2022/11/06 01:49:03;;;;;;;17.95;11.45;;;;;;;;;;6256414;28;20340;-67
2022/11/06 01:52:06;;;;;;;;;;;;;;;;;;6252048;28;20053;-66
2022/11/06 01:55:12;;;;;;;15.88;10.55;;;;;;;;;;6252188;28;19932;-67
2022/11/06 01:58:20;;;;;;;15.73;10.02;;;;;;;;;;6255629;28;20319;-67
2022/11/06 02:01:22;;;;;;;17.75;11.40;;;;;;;;;;6251170;28;20521;-65
2022/11/06 02:04:26;;;;;;;17.10;10.60;;;;;;;;;;6251767;28;20076;-66
2022/11/06 02:07:28;;;;;;;14.38;10.32;;;;;;;;;;6254442;28;20272;-66
2022/11/06 02:10:32;;;;;;;15.00;9.82;;;;;;;;;;6253626;28;20052;-68
2022/11/06 02:13:44;;;;;;;;;;;;;;;;;;6250852;28;20776;-64
2022/11/06 02:16:52;;;;;;;13.60;9.43;;;;;;;;;;6252365;28;20108;-66
2022/11/06 02:20:01;;;;;;;13.90;9.48;;;;;;;;;;6254044;28;20057;-66
2022/11/06 02:23:10;;;;;;;13.50;9.93;;;;;;;;;;6261035;28;20096;-66
2022/11/06 02:26:24;;;;;;;13.68;9.55;;;;;;;;;;6262928;28;20056;-66
2022/11/06 02:29:31;;;;;;;14.52;8.70;;;;;;;;;;6260383;28;20367;-67
2022/11/06 02:32:36;;;;;;;12.63;8.77;;;;;;;;;;6262459;28;20268;-66
2022/11/06 02:35:42;;;;;;;11.77;8.30;;;;;;;;;;6261362;28;20117;-67
2022/11/06 02:38:46;;;;;;;11.75;8.55;;;;;;;;;;6260172;28;20045;-66
2022/11/06 02:41:50;;;;;;;12.02;8.52;;;;;;;;;;6254266;28;20053;-66
2022/11/06 02:44:54;;;;;;;13.88;8.73;;;;;;;;;;6267057;28;20060;-66
2022/11/06 02:47:56;;;;;;;12.63;8.80;;;;;;;;;;6258513;28;20113;-66
2022/11/06 02:50:59;;;;;;;13.98;8.40;;;;;;;;;;6263727;28;20213;-66
2022/11/06 02:54:02;;;;;;;11.88;7.38;;;;;;;;;;6260884;28;20332;-67
2022/11/06 02:57:07;;;;;;;14.57;8.50;;;;;;;;;;6262135;28;20044;-66
2022/11/06 03:00:13;;;;;;;11.77;7.85;;;;;;;;;;6262087;28;20103;-66
2022/11/06 03:03:18;;;;;;;14.68;8.73;;;;;;;;;;6262210;28;20061;-66
2022/11/06 03:06:27;;;;;;;10.77;8.23;;;;;;;;;;6259233;28;20072;-67
2022/11/06 03:09:31;;;;;;;13.60;7.68;;;;;;;;;;6258943;28;20061;-67
2022/11/06 03:12:38;;;;;;;11.93;7.95;;;;;;;;;;6258787;28;20053;-66
2022/11/06 03:15:43;;;;;;;12.60;8.32;;;;;;;;;;6259721;28;20256;-66
2022/11/06 03:18:51;;;;;;;10.85;7.88;;;;;;;;;;6261378;28;20060;-66
2022/11/06 03:21:59;;;;;;;12.05;8.45;;;;;;;;;;6259642;28;20057;-65
2022/11/06 03:25:06;;;;;;;10.32;7.50;;;;;;;;;;6266069;28;20052;-66
2022/11/06 03:28:11;;;;;;;11.73;8.35;;;;;;;;;;6255568;28;20048;-67
2022/11/06 03:31:17;;;;;;;12.45;7.70;;;;;;;;;;6261035;28;20104;-67
2022/11/06 03:34:25;;;;;;;10.65;7.18;;;;;;;;;;6256651;28;20050;-66
2022/11/06 03:37:30;;;;;;;11.35;7.90;;;;;;;;;;6255862;28;20095;-65
2022/11/06 03:40:34;;;;;;;11.90;7.80;;;;;;;;;;6264961;28;20041;-67
2022/11/06 03:43:38;;;;;;;11.27;7.75;;;;;;;;;;6260817;28;20362;-66
2022/11/06 03:46:44;;;;;;;12.13;7.87;;;;;;;;;;6258804;28;20131;-67
2022/11/06 03:49:49;;;;;;;10.43;7.47;;;;;;;;;;6257723;28;20061;-68
2022/11/06 03:52:54;;;;;;;13.75;8.30;;;;;;;;;;6262774;28;20060;-68
2022/11/06 03:56:00;;;;;;;11.10;7.82;;;;;;;;;;6256910;28;20041;-67
2022/11/06 03:59:03;;;;;;;11.77;8.43;;;;;;;;;;6261941;28;20053;-66
2022/11/06 04:02:07;;;;;;;11.98;8.85;;;;;;;;;;6257678;28;20329;-68
2022/11/06 04:05:11;;;;;;;10.55;8.00;;;;;;;;;;6258240;28;20049;-68
2022/11/06 04:14:57;;;;;;;11.27;8.02;;;;;;;;;;6261123;28;20069;-66
2022/11/06 04:18:00;;;;;;;11.57;8.02;;;;;;;;;;6259181;28;20061;-67
2022/11/06 04:21:24;;;;;;;12.75;8.85;;;;;;;;;;6260708;28;20057;-65
2022/11/06 04:28:00;;;;;;;11.27;8.50;;;;;;;;;;6257674;28;20264;-65
2022/11/06 04:31:07;;;;;;;10.35;7.57;;;;;;;;;;6257752;28;20240;-64
2022/11/06 04:34:15;;;;;;;11.88;8.48;;;;;;;;;;6258735;28;20305;-64
2022/11/06 04:37:21;;;;;;;12.82;8.30;;;;;;;;;;6259373;28;20128;-63
2022/11/06 04:40:25;;;;;;;11.38;8.30;;;;;;;;;;6261454;28;20108;-67
2022/11/06 04:43:31;;;;;;;11.63;7.80;;;;;;;;;;6257547;28;20075;-65
2022/11/06 04:46:36;;;;;;;12.63;8.38;;;;;;;;;;6258325;28;20112;-65
2022/11/06 04:49:41;;;;;;;12.93;8.90;;;;;;;;;;6259577;28;20068;-64
2022/11/06 04:52:44;;;;;;;11.77;8.85;;;;;;;;;;6259405;28;20052;-65
2022/11/06 04:55:47;;;;;;;12.27;8.30;;;;;;;;;;6257203;28;20061;-64
2022/11/06 04:58:48;;;;;;;13.18;8.77;;;;;;;;;;6249928;28;20073;-65
2022/11/06 05:01:50;;;;;;;12.48;8.05;;;;;;;;;;6254374;28;20103;-64
2022/11/06 05:04:53;;;;;;;12.68;8.30;;;;;;;;;;6253503;28;20049;-64
2022/11/06 05:07:55;;;;;;;10.80;8.30;;;;;;;;;;6253214;28;20107;-64
2022/11/06 05:10:56;;;;;;;11.77;8.15;;;;;;;;;;6253903;28;20167;-64
2022/11/06 05:13:58;;;;;;;12.18;8.50;;;;;;;;;;6252576;28;20249;-64
2022/11/06 05:17:00;;;;;;;10.25;8.15;;;;;;;;;;6251750;28;20114;-65
2022/11/06 05:20:03;;;;;;;12.98;8.68;;;;;;;;;;6254202;28;20060;-64
2022/11/06 05:23:04;;;;;;;12.00;8.57;;;;;;;;;;6251934;28;20060;-64
2022/11/06 05:26:06;;;;;;;13.82;8.93;;;;;;;;;;6251565;28;20333;-64
2022/11/06 05:29:08;;;;;;;12.63;9.13;;;;;;;;;;6254087;28;20102;-64
2022/11/06 05:32:09;;;;;;;13.15;9.35;;;;;;;;;;6250907;28;20099;-64
2022/11/06 05:35:12;;;;;;;12.80;8.60;;;;;;;;;;6254421;28;20275;-64
2022/11/06 05:38:14;;;;;;;13.93;9.07;;;;;;;;;;6254382;28;20082;-64
2022/11/06 05:41:15;;;;;;;11.50;8.35;;;;;;;;;;6253272;28;20057;-64
2022/11/06 05:44:17;;;;;;;12.75;9.00;;;;;;;;;;6250357;28;20045;-63
2022/11/06 05:47:19;;;;;;;12.68;8.60;;;;;;;;;;6251671;28;20049;-64
2022/11/06 05:50:22;;;;;;;11.23;8.20;;;;;;;;;;6253056;28;20044;-64
2022/11/06 05:53:23;;;;;;;11.02;8.23;;;;;;;;;;6250827;28;20061;-64
2022/11/06 05:56:25;;;;;;;14.48;8.93;;;;;;;;;;6254696;28;20097;-64
2022/11/06 05:59:26;;;;;;;13.55;8.07;;;;;;;;;;6251998;28;20057;-64
2022/11/06 06:02:28;;;;;;;14.57;8.88;;;;;;;;;;6254418;28;20103;-64
2022/11/06 06:05:31;;;;;;;11.63;8.43;;;;;;;;;;6255933;28;20053;-65
2022/11/06 06:08:33;;;;;;;11.88;8.73;;;;;;;;;;6257797;28;20395;-65
2022/11/06 06:11:34;;;;;;;12.40;8.63;;;;;;;;;;6258519;28;20049;-65
2022/11/06 06:14:36;;;;;;;11.85;8.70;;;;;;;;;;6256451;28;20057;-64
2022/11/06 06:17:37;;;;;;;14.02;8.65;;;;;;;;;;6257275;28;20045;-64
2022/11/06 06:20:40;;;;;;;12.52;8.70;;;;;;;;;;6255885;28;20053;-64
2022/11/06 06:23:42;;;;;;;12.45;8.85;;;;;;;;;;6263359;28;20057;-65
2022/11/06 06:26:44;;;;;;;11.88;8.10;;;;;;;;;;6259931;28;20321;-65
2022/11/06 06:29:45;;;;;;;10.48;7.93;;;;;;;;;;6257631;28;20329;-64
2022/11/06 06:32:47;;;;;;;12.75;8.02;;;;;;;;;;6259717;28;20508;-64
2022/11/06 06:35:50;;;;;;;14.93;8.52;;;;;;;;;;6257147;28;20053;-65
2022/11/06 06:38:51;;;;;;;15.05;8.82;;;;;;;;;;6257058;28;20104;-64
2022/11/06 06:41:53;;;;;;;11.23;7.95;;;;;;;;;;6254960;28;20049;-64
2022/11/06 06:44:55;;;;;;;13.00;8.18;;;;;;;;;;6258856;28;20049;-64
2022/11/06 06:48:02;;;;;;;11.43;8.00;;;;;;;;;;6255462;28;20379;-64
2022/11/06 06:51:06;;;;;;;11.27;8.23;;;;;;;;;;6258136;28;20049;-63
2022/11/06 06:54:08;;;;;;;10.98;8.02;;;;;;;;;;6252628;28;20338;-64
2022/11/06 06:57:10;;;;;;;14.57;8.10;;;;;;;;;;6251715;28;20057;-64
2022/11/06 07:00:12;;;;;;;14.00;8.57;;;;;;;;;;6248595;28;20053;-64
2022/11/06 07:03:13;;;;;;;10.52;7.80;;;;;;;;;;6251508;28;20096;-63
2022/11/06 07:06:17;;;;;;;12.75;8.32;;;;;;;;;;6247728;28;20045;-65
2022/11/06 07:09:19;;;;;;;10.07;7.75;;;;;;;;;;6251533;28;20076;-63
2022/11/06 07:12:21;;;;;;;11.55;7.90;;;;;;;;;;6262480;28;20340;-64
2022/11/06 07:15:22;;;;;;;11.18;7.50;;;;;;;;;;6262631;28;20091;-65
2022/11/06 07:18:25;;;;;;;11.60;7.70;;;;;;;;;;6260859;28;20048;-64
2022/11/06 07:21:28;;;;;;;11.15;7.22;;;;;;;;;;6259939;28;20057;-64
2022/11/06 07:24:29;;;;;;;10.35;7.00;;;;;;;;;;6252502;28;20045;-63
2022/11/06 07:27:31;;;;;;;8.90;6.97;;;;;;;;;;6258368;28;20061;-64
2022/11/06 07:30:34;;;;;;;10.50;7.53;;;;;;;;;;6250364;28;20068;-66
2022/11/06 07:33:36;;;;;;;9.50;7.03;;;;;;;;;;6254250;28;20048;-66
2022/11/06 07:36:38;;;;;;;10.13;7.80;;;;;;;;;;6254252;28;20127;-63
2022/11/06 07:39:40;;;;;;;10.40;7.57;;;;;;;;;;6249155;28;20123;-66
2022/11/06 07:42:42;;;;;;;9.52;7.25;;;;;;;;;;6258007;28;20064;-66
2022/11/06 07:45:43;;;;;;;10.52;7.18;;;;;;;;;;6251192;28;20053;-68
2022/11/06 07:48:45;;;;;;;8.20;6.07;;;;;;;;;;6256429;28;20053;-65
2022/11/06 07:51:48;;;;;;;7.75;5.32;;;;;;;;;;6252192;28;20056;-66
2022/11/06 07:54:49;;;;;;;8.13;5.22;;;;;;;;;;6257462;28;20095;-66
2022/11/06 07:57:51;;;;;;;5.88;4.10;;;;;;;;;;6253807;28;20253;-65
2022/11/06 08:00:54;;;;;;;5.18;4.03;;;;;;;;;;6252769;28;20057;-65
2022/11/06 08:03:55;;;;;;;5.65;3.85;;;;;;;;;;6250322;28;20075;-65
2022/11/06 08:06:58;;;;;;;4.82;3.58;;;;;;;;;;6254664;28;20095;-66
2022/11/06 08:10:00;;;;;;;4.80;3.13;;;;;;;;;;6251191;28;20057;-65
2022/11/06 08:13:01;;;;;;;5.55;3.90;;;;;;;;;;6259703;28;20053;-66
2022/11/06 08:16:04;;;;;;;5.10;3.80;;;;;;;;;;6253889;28;20123;-65
2022/11/06 08:19:06;;;;;;;6.05;4.70;;;;;;;;;;6255659;28;20109;-66
2022/11/06 08:22:09;;;;;;;7.45;5.38;;;;;;;;;;6257704;28;20049;-65
2022/11/06 08:25:11;;;;;;;7.87;5.63;;;;;;;;;;6256564;28;20351;-65
2022/11/06 08:28:13;;;;;;;6.88;5.03;;;;;;;;;;6254344;28;20471;-65
2022/11/06 08:31:14;;;;;;;7.38;5.00;;;;;;;;;;6254427;28;20103;-67
2022/11/06 08:34:16;;;;;;;6.20;4.65;;;;;;;;;;6252911;28;20102;-63
2022/11/06 08:37:20;;;;;;;7.28;4.60;;;;;;;;;;6253712;28;20078;-64
2022/11/06 08:40:21;;;;;;;4.75;3.85;;;;;;;;;;6253663;28;20100;-64
2022/11/06 08:43:25;;;;;;;4.07;3.60;;;;;;;;;;6255615;28;20048;-64
2022/11/06 08:46:26;;;;;;;5.78;4.28;;;;;;;;;;6255580;28;20045;-64
2022/11/06 08:49:28;;;;;;;5.10;4.18;;;;;;;;;;6253037;28;20084;-63
2022/11/06 08:52:31;;;;;;;4.82;3.83;;;;;;;;;;6252609;28;20656;-62
2022/11/06 08:55:34;;;;;;;4.65;3.50;;;;;;;;;;6250026;28;20348;-62
2022/11/06 08:58:35;;;;;;;6.82;3.70;;;;;;;;;;6250159;28;20054;-64
2022/11/06 09:01:37;;;;;;;5.35;3.30;;;;;;;;;;6247971;28;20053;-65
2022/11/06 09:04:38;;;;;;;4.35;3.38;;;;;;;;;;6251165;28;20049;-63
2022/11/06 09:07:41;;;;;;;5.82;3.40;;;;;;;;;;6251859;28;20237;-64
2022/11/06 09:10:43;;;;;;;6.63;3.45;;;;;;;;;;6255841;28;20092;-66
2022/11/06 09:13:45;;;;;;;4.30;3.00;;;;;;;;;;6253173;28;20276;-63
2022/11/06 09:16:47;;;;;;;4.57;2.97;;;;;;;;;;6253453;28;20053;-65
2022/11/06 09:19:49;;;;;;;3.40;2.97;;;;;;;;;;6251887;28;20274;-65
2022/11/06 09:22:52;;;;;;;4.07;3.08;;;;;;;;;;6252252;28;20064;-65
2022/11/06 09:25:54;;;;;;;4.10;3.20;;;;;;;;;;6250464;28;20722;-65
2022/11/06 09:28:55;;;;;;;3.13;2.65;;;;;;;;;;6249591;28;20053;-65
2022/11/06 09:31:57;;;;;;;3.47;2.80;;;;;;;;;;6252446;28;20134;-64
2022/11/06 09:34:59;;;;;;;2.88;2.58;;;;;;;;;;6255019;28;20277;-64
2022/11/06 09:38:03;;;;;;;3.30;3.00;;;;;;;;;;6253687;28;20056;-66
2022/11/06 09:41:05;;;;;;;4.03;3.35;;;;;;;;;;6251589;28;20045;-65
2022/11/06 09:44:18;;;;;;;3.70;3.30;;;;;;;;;;6249756;28;20045;-67
2022/11/06 09:47:23;;;;;;;3.95;2.92;;;;;;;;;;6248614;28;20102;-68
2022/11/06 09:50:28;;;;;;;3.25;2.55;;;;;;;;;;6249749;28;20052;-68
2022/11/06 09:53:34;;;;;;;2.75;2.50;;;;;;;;;;6249343;28;20053;-68
2022/11/06 09:56:38;;;;;;;2.58;1.80;;;;;;;;;;6252396;28;20117;-68
2022/11/06 09:59:40;;;;;;;4.18;2.05;;;;;;;;;;6252911;28;20061;-67
2022/11/06 10:02:45;;;;;;;2.55;2.10;;;;;;;;;;6253582;28;20703;-68
2022/11/06 10:05:47;;;;;;;2.45;2.10;;;;;;;;;;6253762;28;22804;-68
2022/11/06 10:08:51;;;;;;;2.42;2.10;;;;;;;;;;6252270;28;20055;-68
2022/11/06 10:12:01;;;;;;;2.65;2.05;;;;;;;;;;6251829;28;20054;-65
2022/11/06 10:15:12;;;;;;;3.28;2.17;;;;;;;;;;6252681;28;20087;-69
2022/11/06 10:18:20;;;;;;;4.25;2.78;;;;;;;;;;6250992;28;20064;-66
2022/11/06 10:21:24;;;;;;;4.03;2.90;;;;;;;;;;6254895;28;20337;-68
2022/11/06 10:24:31;;;;;;;4.18;3.05;;;;;;;;;;6251716;28;20057;-69
2022/11/06 10:27:39;;;;;;;3.60;2.92;;;;;;;;;;6261020;28;20069;-69
2022/11/06 10:30:45;;;;;;;4.05;2.40;;;;;;;;;;6253574;28;20065;-68
2022/11/06 10:33:55;;;;;;;3.10;2.67;;;;;;;;;;6250849;28;20076;-64
2022/11/06 10:37:01;;;;;;;2.88;2.47;;;;;;;;;;6254866;28;20053;-65
2022/11/06 10:40:07;;;;;;;3.00;2.70;;;;;;;;;;6252493;28;20450;-68
2022/11/06 10:43:14;;;;;;;3.30;2.63;;;;;;;;;;6251808;28;20053;-68
2022/11/06 10:46:21;;;;;;;3.72;3.33;;;;;;;;;;6257500;28;20049;-67
2022/11/06 10:49:28;;;;;;;5.60;3.47;;;;;;;;;;6255394;28;20054;-67
2022/11/06 10:52:54;;;;;;;6.03;4.45;;;;;;;;;;6257756;28;20041;-68
2022/11/06 10:56:10;;;;;;;6.28;4.03;;;;;;;;;;6252260;28;20068;-68
2022/11/06 10:59:12;;;;;;;4.50;3.83;;;;;;;;;;6257313;28;20176;-68
2022/11/06 11:02:23;;;;;;;4.57;3.38;;;;;;;;;;6254337;28;20049;-65
2022/11/06 11:05:27;;;;;;;5.45;3.83;;;;;;;;;;6254699;28;20091;-67
2022/11/06 11:08:34;;;;;;;5.88;4.22;;;;;;;;;;6252660;28;20041;-68
2022/11/06 11:11:37;;;;;;;5.22;4.20;;;;;;;;;;6249664;28;20107;-65
2022/11/06 11:14:38;;;;;;;8.07;4.82;;;;;;;;;;6251460;28;20338;-66
2022/11/06 11:17:40;;;;;;;7.80;5.28;;;;;;;;;;6252420;28;20053;-65
2022/11/06 11:20:43;;;;;;;8.52;4.82;;;;;;;;;;6252900;28;20088;-65
2022/11/06 11:23:44;;;;;;;8.60;5.97;;;;;;;;;;6248663;28;20337;-67
2022/11/06 11:26:49;;;;;;;8.35;5.30;;;;;;;;;;6251700;28;20060;-67
2022/11/06 11:29:51;;;;;;;8.68;5.65;;;;;;;;;;6253020;28;20099;-67
2022/11/06 11:32:53;;;;;;;8.70;5.68;;;;;;;;;;6247938;28;20053;-64
2022/11/06 11:35:55;;;;;;;8.23;5.95;;;;;;;;;;6250968;28;20045;-66
2022/11/06 11:38:56;;;;;;;8.77;5.65;;;;;;;;;;6251277;28;20066;-65
2022/11/06 11:42:23;;;;;;;9.65;5.65;;;;;;;;;;6249933;28;20069;-67
2022/11/06 11:45:25;;;;;;;8.48;6.03;;;;;;;;;;6251272;28;20056;-64
2022/11/06 11:48:26;;;;;;;8.57;5.32;;;;;;;;;;6252083;28;20049;-63
2022/11/06 11:51:30;;;;;;;7.97;4.97;;;;;;;;;;6246666;28;21139;-65
2022/11/06 11:54:34;;;;;;;9.35;5.55;;;;;;;;;;6247970;28;20160;-66
2022/11/06 11:57:37;;;;;;;7.75;5.18;;;;;;;;;;6247789;28;20379;-64
2022/11/06 12:00:50;;;;;;;10.20;6.88;;;;;;;;;;6251354;28;20042;-66
2022/11/06 12:03:52;;;;;;;9.60;6.63;;;;;;;;;;6247994;28;20057;-65
2022/11/06 12:06:57;;;;;;;12.38;7.60;;;;;;;;;;6251729;28;20060;-64
2022/11/06 12:09:59;;;;;;;15.13;9.32;;;;;;;;;;6252906;28;20119;-66
2022/11/06 12:13:04;;;;;;;16.00;10.13;;;;;;;;;;6252540;28;20057;-66
2022/11/06 12:16:08;;;;;;;15.98;9.98;;;;;;;;;;6250622;28;20095;-65
2022/11/06 12:19:10;;;;;;;13.27;9.27;;;;;;;;;;6248215;28;20504;-66
2022/11/06 12:22:16;;;;;;;12.75;8.63;;;;;;;;;;6247624;28;20084;-67
2022/11/06 12:25:22;;;;;;;14.65;10.05;;;;;;;;;;6249184;28;20049;-71
2022/11/06 12:28:25;;;;;;;22.98;15.02;;;;;;;;;;6248969;28;20056;-68
2022/11/06 12:31:33;;;;;;;27.65;18.90;;;;;;;;;;6251643;28;20064;-67
2022/11/06 12:34:39;;;;;;;25.50;16.58;;;;;;;;;;6260326;28;20436;-67
2022/11/06 12:37:45;;;;;;;17.23;11.90;;;;;;;;;;6260918;28;20057;-67
2022/11/06 12:40:49;;;;;;;14.88;11.15;;;;;;;;;;6263434;28;20049;-68
2022/11/06 12:43:55;;;;;;;11.52;7.68;;;;;;;;;;6257757;28;20121;-65
2022/11/06 12:47:00;;;;;;;9.82;6.40;;;;;;;;;;6260490;28;20057;-65
2022/11/06 12:50:22;;;;;;;6.40;4.63;;;;;;;;;;6259794;28;20092;-66
2022/11/06 12:53:36;;;;;;;5.93;4.32;;;;;;;;;;6260226;28;20095;-66
2022/11/06 12:56:44;;;;;;;5.70;3.72;;;;;;;;;;6255683;28;20045;-67
2022/11/06 12:59:57;;;;;;;6.07;4.28;;;;;;;;;;6257180;28;20275;-68
2022/11/06 13:03:13;;;;;;;8.00;5.28;;;;;;;;;;6251008;28;20057;-68
2022/11/06 13:06:20;;;;;;;7.45;4.85;;;;;;;;;;6251584;28;20045;-68
2022/11/06 13:09:24;;;;;;;7.40;4.72;;;;;;;;;;6257446;28;20049;-67
2022/11/06 13:12:33;;;;;;;6.85;4.68;;;;;;;;;;6255524;28;20057;-67
2022/11/06 13:15:41;;;;;;;7.65;5.03;;;;;;;;;;6258298;28;20256;-68
2022/11/06 13:18:45;;;;;;;7.88;5.32;;;;;;;;;;6254942;28;20091;-68
2022/11/06 13:22:16;;;;;;;8.38;5.65;;;;;;;;;;6255132;28;20054;-68
2022/11/06 13:25:22;;;;;;;8.57;5.00;;;;;;;;;;6209197;28;20065;-68
2022/11/06 13:28:34;;;;;;;8.30;5.78;;;;;;;;;;6210124;28;20101;-69
2022/11/06 13:31:40;;;;;;;9.35;5.68;;;;;;;;;;6204241;28;20108;-68
2022/11/06 13:34:43;;;;;;;9.18;5.70;;;;;;;;;;6200233;28;20062;-69
2022/11/06 13:37:48;;;;;;;8.15;5.40;;;;;;;;;;6201522;28;20046;-68
2022/11/06 13:40:52;;;;;;;;;;;;;;;;;;6204271;28;20085;-68
2022/11/06 13:43:57;;;;;;;11.10;6.30;;;;;;;;;;6205487;28;19926;-67
2022/11/06 13:47:07;;;;;;;11.00;6.97;;;;;;;;;;6198883;28;20080;-68
2022/11/06 13:50:12;;;;;;;10.32;6.45;;;;;;;;;;6200443;28;20085;-65
2022/11/06 13:53:20;;;;;;;10.88;6.82;;;;;;;;;;6204997;28;20058;-68
2022/11/06 13:56:39;;;;;;;12.40;7.07;;;;;;;;;;6205056;28;20122;-69
2022/11/06 14:00:02;;;;;;;10.90;6.32;;;;;;;;;;6204192;28;20116;-73
2022/11/06 14:03:28;;;;;;;12.82;7.72;;;;;;;;;;6248622;28;20260;-71
2022/11/06 14:06:30;;;;;;;12.35;7.10;;;;;;;;;;6251248;28;20150;-69
2022/11/06 14:09:34;;;;;;;13.55;7.00;;;;;;;;;;6249444;28;20053;-68
2022/11/06 14:12:36;;;;;;;12.25;6.93;;;;;;;;;;6250632;28;20147;-68
2022/11/06 14:15:40;;;;;;;16.33;7.07;;;;;;;;;;6245847;28;20053;-69
2022/11/06 14:18:43;;;;;;;14.57;7.18;;;;;;;;;;6246579;28;20045;-66
2022/11/06 14:21:47;;;;;;;13.40;7.25;;;;;;;;;;6252568;28;20061;-65
2022/11/06 14:24:49;;;;;;;13.75;7.50;;;;;;;;;;6253049;28;20250;-68
2022/11/06 14:28:05;;;;;;;12.15;6.65;;;;;;;;;;6252407;28;20049;-67
2022/11/06 14:31:07;;;;;;;12.85;6.47;;;;;;;;;;6254128;28;20057;-68
2022/11/06 14:34:27;;;;;;;11.90;6.10;;;;;;;;;;6256050;28;20052;-69
2022/11/06 14:38:10;;;;;;;13.00;6.50;;;;;;;;;;6254943;28;20054;-67
2022/11/06 14:41:47;;;;;;;12.75;6.55;;;;;;;;;;6203286;28;20077;-68
2022/11/06 14:44:51;;;;;;;12.43;6.20;;;;;;;;;;6196190;28;20101;-67
2022/11/06 14:47:55;;;;;;;13.95;6.93;;;;;;;;;;6203750;28;20046;-67
2022/11/06 14:50:59;;;;;;;11.98;5.85;;;;;;;;;;6205636;28;20057;-68
2022/11/06 14:54:04;;;;;;;11.30;5.68;;;;;;;;;;6202628;28;20058;-70
2022/11/06 14:57:06;;;;;;;10.85;6.05;;;;;;;;;;6200872;28;20254;-66
2022/11/06 15:00:14;;;;;;;11.63;5.95;;;;;;;;;;6202890;28;20357;-70
2022/11/06 15:03:20;;;;;;;12.23;5.72;;;;;;;;;;6204388;28;21323;-65
2022/11/06 15:06:38;;;;;;;11.80;6.18;;;;;;;;;;6204987;28;20054;-69
2022/11/06 15:09:47;;;;;;;11.10;5.88;;;;;;;;;;6202859;28;20105;-69
2022/11/06 15:13:06;;;;;;;10.93;5.72;;;;;;;;;;6204646;28;20046;-70
2022/11/06 15:16:12;;;;;;;12.43;5.90;;;;;;;;;;6222553;28;20060;-66
2022/11/06 15:19:15;;;;;;;12.23;5.35;;;;;;;;;;6254625;28;20400;-66
2022/11/06 15:22:22;;;;;;;10.82;5.28;;;;;;;;;;6258051;28;20226;-64
2022/11/06 15:25:26;;;;;;;9.85;5.35;;;;;;;;;;6253568;28;20060;-68
2022/11/06 15:28:31;;;;;;;13.65;6.40;;;;;;;;;;6251825;28;20058;-70
2022/11/06 15:31:33;;;;;;;11.77;6.38;;;;;;;;;;6251224;28;20336;-71
2022/11/06 15:34:37;;;;;;;10.43;5.57;;;;;;;;;;6252387;28;20045;-67
2022/11/06 15:37:40;;;;;;;;;;;;;;;;;;6252823;28;20078;-67
2022/11/06 15:40:43;;;;;;;12.23;6.07;;;;;;;;;;6258352;28;20145;-68
2022/11/06 15:43:46;;;;;;;11.35;5.63;;;;;;;;;;6251074;28;20399;-66
2022/11/06 15:46:54;;;;;;;10.00;5.00;;;;;;;;;;6252630;28;20045;-67
2022/11/06 15:50:10;;;;;;;11.63;5.53;;;;;;;;;;6253643;28;20487;-66
2022/11/06 15:53:23;;;;;;;9.95;4.95;;;;;;;;;;6253646;28;20057;-68
2022/11/06 15:56:28;;;;;;;10.70;5.30;;;;;;;;;;6253570;28;20560;-66
2022/11/06 15:59:30;;;;;;;9.52;4.60;;;;;;;;;;6252471;28;20053;-69
2022/11/06 16:02:31;;;;;;;11.80;5.30;;;;;;;;;;6252052;28;20053;-69
2022/11/06 16:05:36;;;;;;;9.48;4.97;;;;;;;;;;6256055;28;20107;-69
2022/11/06 16:08:39;;;;;;;9.05;4.75;;;;;;;;;;6253785;28;20068;-67
2022/11/06 16:11:41;;;;;;;9.82;5.18;;;;;;;;;;6254487;28;20354;-65
2022/11/06 16:14:44;;;;;;;9.20;5.13;;;;;;;;;;6253487;28;20053;-70
2022/11/06 16:17:45;;;;;;;8.98;4.55;;;;;;;;;;6251213;28;20343;-70
2022/11/06 16:20:49;;;;;;;8.68;4.50;;;;;;;;;;6253550;28;20115;-70
2022/11/06 16:23:53;;;;;;;11.45;5.72;;;;;;;;;;6252048;28;20049;-66
2022/11/06 16:26:55;;;;;;;11.10;5.10;;;;;;;;;;6253082;28;20134;-69
2022/11/06 16:29:58;;;;;;;10.93;5.07;;;;;;;;;;6249353;28;20863;-67
2022/11/06 16:33:00;;;;;;;9.30;5.13;;;;;;;;;;6247047;28;20049;-68
2022/11/06 16:36:10;;;;;;;10.88;5.20;;;;;;;;;;6252238;28;20345;-68
2022/11/06 16:42:40;;;;;;;10.98;5.50;;;;;;;;;;6334020;27;20633;-69
2022/11/06 16:45:52;;;;;;;7.97;5.13;;;;;;;;;;6286835;28;20052;-68
2022/11/06 16:48:54;;;;;;;10.05;4.38;;;;;;;;;;6288518;28;20065;-70
2022/11/06 16:51:55;;;;;;;10.57;5.03;;;;;;;;;;6285220;28;20177;-69
2022/11/06 16:54:59;;;;;;;9.98;5.10;;;;;;;;;;6289035;28;20109;-68
2022/11/06 16:58:02;;;;;;;8.15;4.68;;;;;;;;;;6284806;28;20060;-66
2022/11/06 17:01:05;;;;;;;8.63;4.70;;;;;;;;;;6287367;28;20048;-69
2022/11/06 17:04:13;;;;;;;10.50;4.77;;;;;;;;;;6307855;28;20494;-68
2022/11/06 17:07:20;;;;;;;10.10;5.13;;;;;;;;;;6286050;28;20044;-69
2022/11/06 17:10:39;;;;;;;9.77;4.78;;;;;;;;;;6314224;28;20098;-69
2022/11/06 17:13:43;;;;;;;9.98;5.28;;;;;;;;;;6320749;28;20093;-68
2022/11/06 17:16:46;;;;;;;9.52;5.25;;;;;;;;;;6335436;28;20259;-67
2022/11/06 17:19:48;;;;;;;12.98;5.63;;;;;;;;;;6337344;28;20050;-68
2022/11/06 17:22:50;;;;;;;9.75;5.40;;;;;;;;;;6333589;28;20363;-65
2022/11/06 17:25:53;;;;;;;10.38;5.25;;;;;;;;;;6336454;28;20167;-68
2022/11/06 17:28:57;;;;;;;10.65;5.32;;;;;;;;;;6333952;27;20085;-68
2022/11/06 17:31:58;;;;;;;;;;;;;;;;;;6338025;27;20040;-67
2022/11/06 17:35:00;;;;;;;8.65;4.75;;;;;;;;;;6335573;28;20017;-68
2022/11/06 17:38:01;;;;;;;10.10;5.55;;;;;;;;;;6335527;28;20290;-68
2022/11/06 17:41:03;;;;;;;11.32;5.28;;;;;;;;;;6334478;27;20089;-68
2022/11/06 17:44:07;;;;;;;10.35;5.80;;;;;;;;;;6336275;28;20410;-65
2022/11/06 17:47:09;;;;;;;12.65;5.90;;;;;;;;;;6336112;28;20339;-64
2022/11/06 17:50:10;;;;;;;10.07;5.90;;;;;;;;;;6337697;28;20040;-64
2022/11/06 17:53:12;;;;;;;11.38;5.68;;;;;;;;;;6322624;27;20324;-70
2022/11/06 17:56:14;;;;;;;10.07;6.00;;;;;;;;;;6321104;28;20098;-71
2022/11/06 17:59:17;;;;;;;11.52;5.72;;;;;;;;;;6318859;28;20210;-70
2022/11/06 18:02:19;;;;;;;10.60;5.68;;;;;;;;;;6321347;28;20083;-66
2022/11/06 18:05:21;;;;;;;10.25;5.80;;;;;;;;;;6317923;28;20052;-68
2022/11/06 18:08:22;;;;;;;12.02;6.22;;;;;;;;;;6317157;28;20059;-65
2022/11/06 18:11:24;;;;;;;12.80;6.07;;;;;;;;;;6316076;28;20110;-69
2022/11/06 18:14:27;;;;;;;11.25;5.47;;;;;;;;;;6320500;28;20056;-69
2022/11/06 18:17:29;;;;;;;10.65;6.30;;;;;;;;;;6317256;28;20051;-70
2022/11/06 18:20:30;;;;;;;12.38;6.35;;;;;;;;;;6318653;28;20102;-69
2022/11/06 18:23:32;;;;;;;11.73;5.90;;;;;;;;;;6316403;28;20090;-69
2022/11/06 18:26:36;;;;;;;13.35;6.03;;;;;;;;;;6318874;28;20048;-66
2022/11/06 18:29:39;;;;;;;12.45;6.43;;;;;;;;;;6315585;28;20055;-64
2022/11/06 18:32:40;;;;;;;12.63;6.30;;;;;;;;;;6317974;28;20240;-70
2022/11/06 18:35:42;;;;;;;10.60;6.03;;;;;;;;;;6318130;28;20055;-68